Adrian, North Dakota
Current Conditions -  °F | °C
As of 12:56 AM on Wednesday 22 Oct 2014 (Local Time) from KJMS Reporting Station
Clear Clear  
Wind Chill: 60°   Ceiling: Unl
Heat Index: 60°   Visibility: 10mi
Dew Point: 44°   Wind: 17mph
Humidity: 55%   Direction: 160°SSE
Pressure: 29.77"   Gusts: NA
Location:  46.6526°N, 98.6214°W
Report Text: KJMS 220556Z AUTO 16015KT 10SM CLR 16/07 A2977 RMK AO2 SLP081 T01560067 10183 20144 402440061 58008
Loading
Personal Weather Stations






























Interactive Weather Map
Tropical Storm Tracking
New forecast layout! Learn more

10-Day Weather Forecast

Advertisements
Track Severe Weather on mobile